sensor_id;sensor_type;location;lat;lon;timestamp;P1;durP1;ratioP1;P2;durP2;ratioP2
64598;SDS011;51008;51.504;11.548;2024-03-07T00:02:41;36.50;;;17.98;;
64598;SDS011;51008;51.504;11.548;2024-03-07T00:07:44;32.08;;;17.08;;
64598;SDS011;51008;51.504;11.548;2024-03-07T00:12:46;30.58;;;16.35;;
64598;SDS011;51008;51.504;11.548;2024-03-07T00:17:47;35.65;;;17.63;;
64598;SDS011;51008;51.504;11.548;2024-03-07T00:22:48;34.05;;;18.17;;
64598;SDS011;51008;51.504;11.548;2024-03-07T00:27:49;35.63;;;17.20;;
64598;SDS011;51008;51.504;11.548;2024-03-07T00:32:50;38.50;;;17.63;;
64598;SDS011;51008;51.504;11.548;2024-03-07T00:37:51;36.80;;;18.02;;
64598;SDS011;51008;51.504;11.548;2024-03-07T00:42:52;38.30;;;17.17;;
64598;SDS011;51008;51.504;11.548;2024-03-07T00:47:54;36.95;;;18.10;;
64598;SDS011;51008;51.504;11.548;2024-03-07T00:52:55;36.40;;;17.83;;
64598;SDS011;51008;51.504;11.548;2024-03-07T00:57:56;36.70;;;18.05;;
64598;SDS011;51008;51.504;11.548;2024-03-07T01:02:57;37.38;;;18.85;;
64598;SDS011;51008;51.504;11.548;2024-03-07T01:07:58;39.97;;;17.35;;
64598;SDS011;51008;51.504;11.548;2024-03-07T01:12:59;39.25;;;17.75;;
64598;SDS011;51008;51.504;11.548;2024-03-07T01:18:00;42.25;;;18.63;;
64598;SDS011;51008;51.504;11.548;2024-03-07T01:23:02;40.22;;;18.83;;
64598;SDS011;51008;51.504;11.548;2024-03-07T01:28:03;42.72;;;19.60;;
64598;SDS011;51008;51.504;11.548;2024-03-07T01:33:04;46.42;;;18.42;;
64598;SDS011;51008;51.504;11.548;2024-03-07T01:38:05;41.63;;;21.05;;
64598;SDS011;51008;51.504;11.548;2024-03-07T01:43:07;42.92;;;19.75;;
64598;SDS011;51008;51.504;11.548;2024-03-07T01:48:09;45.90;;;20.73;;
64598;SDS011;51008;51.504;11.548;2024-03-07T01:53:11;44.13;;;20.67;;
64598;SDS011;51008;51.504;11.548;2024-03-07T01:58:13;45.88;;;20.40;;
64598;SDS011;51008;51.504;11.548;2024-03-07T02:03:19;44.22;;;20.80;;
64598;SDS011;51008;51.504;11.548;2024-03-07T02:08:20;42.35;;;21.35;;
64598;SDS011;51008;51.504;11.548;2024-03-07T02:13:21;45.17;;;21.10;;
64598;SDS011;51008;51.504;11.548;2024-03-07T02:18:22;42.35;;;20.10;;
64598;SDS011;51008;51.504;11.548;2024-03-07T02:23:23;45.15;;;21.55;;
64598;SDS011;51008;51.504;11.548;2024-03-07T02:28:25;46.70;;;21.90;;
64598;SDS011;51008;51.504;11.548;2024-03-07T02:33:26;44.97;;;21.83;;
64598;SDS011;51008;51.504;11.548;2024-03-07T02:38:27;55.60;;;22.80;;
64598;SDS011;51008;51.504;11.548;2024-03-07T02:43:28;54.38;;;24.00;;
64598;SDS011;51008;51.504;11.548;2024-03-07T02:48:29;54.17;;;23.50;;
64598;SDS011;51008;51.504;11.548;2024-03-07T02:53:31;54.70;;;25.15;;
64598;SDS011;51008;51.504;11.548;2024-03-07T02:58:32;53.75;;;24.20;;
64598;SDS011;51008;51.504;11.548;2024-03-07T03:03:33;52.40;;;24.60;;
64598;SDS011;51008;51.504;11.548;2024-03-07T03:08:35;60.70;;;24.70;;
64598;SDS011;51008;51.504;11.548;2024-03-07T03:13:42;53.17;;;24.90;;
64598;SDS011;51008;51.504;11.548;2024-03-07T03:18:44;58.05;;;24.95;;
64598;SDS011;51008;51.504;11.548;2024-03-07T03:23:45;59.30;;;26.88;;
64598;SDS011;51008;51.504;11.548;2024-03-07T03:28:46;54.13;;;25.77;;
64598;SDS011;51008;51.504;11.548;2024-03-07T03:33:47;64.80;;;27.67;;
64598;SDS011;51008;51.504;11.548;2024-03-07T03:38:48;58.20;;;27.20;;
64598;SDS011;51008;51.504;11.548;2024-03-07T03:43:50;62.90;;;28.00;;
64598;SDS011;51008;51.504;11.548;2024-03-07T03:48:51;58.13;;;26.45;;
64598;SDS011;51008;51.504;11.548;2024-03-07T03:53:52;61.45;;;27.63;;
64598;SDS011;51008;51.504;11.548;2024-03-07T03:58:53;56.78;;;27.08;;
64598;SDS011;51008;51.504;11.548;2024-03-07T04:03:54;52.33;;;25.65;;
64598;SDS011;51008;51.504;11.548;2024-03-07T04:08:56;53.30;;;25.05;;
64598;SDS011;51008;51.504;11.548;2024-03-07T04:13:57;47.58;;;23.63;;
64598;SDS011;51008;51.504;11.548;2024-03-07T04:18:58;52.90;;;26.08;;
64598;SDS011;51008;51.504;11.548;2024-03-07T04:24:00;55.90;;;26.80;;
64598;SDS011;51008;51.504;11.548;2024-03-07T04:29:01;53.03;;;26.05;;
64598;SDS011;51008;51.504;11.548;2024-03-07T04:34:02;59.55;;;26.65;;
64598;SDS011;51008;51.504;11.548;2024-03-07T04:39:03;64.22;;;29.40;;
64598;SDS011;51008;51.504;11.548;2024-03-07T04:44:04;61.90;;;28.42;;
64598;SDS011;51008;51.504;11.548;2024-03-07T04:49:06;64.90;;;29.17;;
64598;SDS011;51008;51.504;11.548;2024-03-07T04:54:07;64.97;;;28.90;;
64598;SDS011;51008;51.504;11.548;2024-03-07T04:59:08;63.78;;;28.25;;
64598;SDS011;51008;51.504;11.548;2024-03-07T05:04:09;63.75;;;29.35;;
64598;SDS011;51008;51.504;11.548;2024-03-07T05:09:12;76.93;;;30.20;;
64598;SDS011;51008;51.504;11.548;2024-03-07T05:14:13;79.32;;;29.63;;
64598;SDS011;51008;51.504;11.548;2024-03-07T05:19:14;91.93;;;32.33;;
64598;SDS011;51008;51.504;11.548;2024-03-07T05:24:16;99.30;;;33.15;;
64598;SDS011;51008;51.504;11.548;2024-03-07T05:29:17;101.50;;;32.60;;
64598;SDS011;51008;51.504;11.548;2024-03-07T05:34:19;111.40;;;36.42;;
64598;SDS011;51008;51.504;11.548;2024-03-07T05:39:20;103.63;;;34.35;;
64598;SDS011;51008;51.504;11.548;2024-03-07T05:44:22;105.13;;;36.78;;
64598;SDS011;51008;51.504;11.548;2024-03-07T05:49:23;105.07;;;36.20;;
64598;SDS011;51008;51.504;11.548;2024-03-07T05:54:24;127.63;;;37.60;;
64598;SDS011;51008;51.504;11.548;2024-03-07T05:59:25;123.00;;;38.45;;
64598;SDS011;51008;51.504;11.548;2024-03-07T06:04:27;104.22;;;37.25;;
64598;SDS011;51008;51.504;11.548;2024-03-07T06:09:28;102.90;;;36.58;;
64598;SDS011;51008;51.504;11.548;2024-03-07T06:14:29;109.57;;;38.08;;
64598;SDS011;51008;51.504;11.548;2024-03-07T06:19:30;108.10;;;36.72;;
64598;SDS011;51008;51.504;11.548;2024-03-07T06:24:31;108.47;;;36.35;;
64598;SDS011;51008;51.504;11.548;2024-03-07T06:29:33;105.45;;;36.08;;
64598;SDS011;51008;51.504;11.548;2024-03-07T06:34:34;103.65;;;37.95;;
64598;SDS011;51008;51.504;11.548;2024-03-07T06:39:35;111.70;;;41.10;;
64598;SDS011;51008;51.504;11.548;2024-03-07T06:44:36;111.75;;;39.40;;
64598;SDS011;51008;51.504;11.548;2024-03-07T06:49:37;110.97;;;38.42;;
64598;SDS011;51008;51.504;11.548;2024-03-07T06:54:38;102.53;;;38.90;;
64598;SDS011;51008;51.504;11.548;2024-03-07T06:59:40;93.38;;;36.85;;
64598;SDS011;51008;51.504;11.548;2024-03-07T07:04:41;111.10;;;38.05;;
64598;SDS011;51008;51.504;11.548;2024-03-07T07:09:42;98.50;;;37.30;;
64598;SDS011;51008;51.504;11.548;2024-03-07T07:14:43;86.95;;;35.35;;
64598;SDS011;51008;51.504;11.548;2024-03-07T07:19:45;98.38;;;36.60;;
64598;SDS011;51008;51.504;11.548;2024-03-07T07:24:46;113.78;;;39.15;;
64598;SDS011;51008;51.504;11.548;2024-03-07T07:29:47;89.05;;;34.05;;
64598;SDS011;51008;51.504;11.548;2024-03-07T07:34:48;99.53;;;35.15;;
64598;SDS011;51008;51.504;11.548;2024-03-07T07:39:50;85.65;;;35.70;;
64598;SDS011;51008;51.504;11.548;2024-03-07T07:44:51;86.93;;;35.03;;
64598;SDS011;51008;51.504;11.548;2024-03-07T07:49:52;79.65;;;33.25;;
64598;SDS011;51008;51.504;11.548;2024-03-07T07:54:53;83.68;;;32.95;;
64598;SDS011;51008;51.504;11.548;2024-03-07T07:59:54;83.82;;;34.38;;
64598;SDS011;51008;51.504;11.548;2024-03-07T08:04:55;77.82;;;32.83;;
64598;SDS011;51008;51.504;11.548;2024-03-07T08:09:56;68.45;;;32.05;;
64598;SDS011;51008;51.504;11.548;2024-03-07T08:14:57;65.40;;;30.00;;
64598;SDS011;51008;51.504;11.548;2024-03-07T08:19:59;70.40;;;30.83;;
64598;SDS011;51008;51.504;11.548;2024-03-07T08:25:00;63.53;;;30.02;;
64598;SDS011;51008;51.504;11.548;2024-03-07T08:30:01;61.97;;;30.17;;
64598;SDS011;51008;51.504;11.548;2024-03-07T08:35:03;60.53;;;28.55;;
64598;SDS011;51008;51.504;11.548;2024-03-07T08:40:06;64.97;;;28.40;;
64598;SDS011;51008;51.504;11.548;2024-03-07T08:45:09;54.33;;;26.33;;
64598;SDS011;51008;51.504;11.548;2024-03-07T08:50:11;52.13;;;24.70;;
64598;SDS011;51008;51.504;11.548;2024-03-07T08:55:14;46.75;;;22.10;;
64598;SDS011;51008;51.504;11.548;2024-03-07T09:11:39;39.83;;;19.97;;
64598;SDS011;51008;51.504;11.548;2024-03-07T09:16:43;28.15;;;14.95;;
64598;SDS011;51008;51.504;11.548;2024-03-07T09:21:44;24.42;;;12.48;;
64598;SDS011;51008;51.504;11.548;2024-03-07T09:26:45;26.70;;;13.13;;
64598;SDS011;51008;51.504;11.548;2024-03-07T09:31:46;29.77;;;13.07;;
64598;SDS011;51008;51.504;11.548;2024-03-07T09:36:50;31.40;;;13.87;;
64598;SDS011;51008;51.504;11.548;2024-03-07T09:41:54;28.75;;;14.23;;
64598;SDS011;51008;51.504;11.548;2024-03-07T09:46:55;28.42;;;14.23;;
64598;SDS011;51008;51.504;11.548;2024-03-07T09:51:57;26.60;;;13.55;;
64598;SDS011;51008;51.504;11.548;2024-03-07T09:56:59;26.65;;;12.00;;
64598;SDS011;51008;51.504;11.548;2024-03-07T10:02:02;22.63;;;11.82;;
64598;SDS011;51008;51.504;11.548;2024-03-07T10:07:07;24.52;;;12.63;;
64598;SDS011;51008;51.504;11.548;2024-03-07T10:12:09;24.10;;;12.68;;
64598;SDS011;51008;51.504;11.548;2024-03-07T10:17:11;24.05;;;12.63;;
64598;SDS011;51008;51.504;11.548;2024-03-07T10:22:12;24.00;;;12.48;;
64598;SDS011;51008;51.504;11.548;2024-03-07T10:27:13;25.67;;;12.25;;
64598;SDS011;51008;51.504;11.548;2024-03-07T10:32:18;25.95;;;12.18;;
64598;SDS011;51008;51.504;11.548;2024-03-07T10:37:20;23.50;;;12.13;;
64598;SDS011;51008;51.504;11.548;2024-03-07T10:42:21;24.00;;;12.02;;
64598;SDS011;51008;51.504;11.548;2024-03-07T10:47:24;24.13;;;11.07;;
64598;SDS011;51008;51.504;11.548;2024-03-07T10:57:50;26.00;;;12.27;;
64598;SDS011;51008;51.504;11.548;2024-03-07T11:02:52;23.95;;;11.85;;
64598;SDS011;51008;51.504;11.548;2024-03-07T11:07:54;27.23;;;12.90;;
64598;SDS011;51008;51.504;11.548;2024-03-07T11:12:55;27.67;;;13.55;;
64598;SDS011;51008;51.504;11.548;2024-03-07T11:17:56;26.52;;;13.75;;
64598;SDS011;51008;51.504;11.548;2024-03-07T11:22:57;30.08;;;12.85;;
64598;SDS011;51008;51.504;11.548;2024-03-07T11:27:59;32.63;;;13.40;;
64598;SDS011;51008;51.504;11.548;2024-03-07T11:33:01;27.52;;;13.07;;
64598;SDS011;51008;51.504;11.548;2024-03-07T11:38:05;30.98;;;13.73;;
64598;SDS011;51008;51.504;11.548;2024-03-07T11:43:07;23.67;;;11.93;;
64598;SDS011;51008;51.504;11.548;2024-03-07T11:48:08;26.20;;;12.35;;
64598;SDS011;51008;51.504;11.548;2024-03-07T11:53:09;22.50;;;12.75;;
64598;SDS011;51008;51.504;11.548;2024-03-07T12:03:15;24.17;;;12.85;;
64598;SDS011;51008;51.504;11.548;2024-03-07T12:08:17;29.08;;;14.15;;
64598;SDS011;51008;51.504;11.548;2024-03-07T12:13:18;24.85;;;12.65;;
64598;SDS011;51008;51.504;11.548;2024-03-07T12:18:19;23.75;;;12.35;;
64598;SDS011;51008;51.504;11.548;2024-03-07T12:23:22;24.48;;;12.40;;
64598;SDS011;51008;51.504;11.548;2024-03-07T12:28:24;22.92;;;11.52;;
64598;SDS011;51008;51.504;11.548;2024-03-07T12:33:25;24.38;;;12.82;;
64598;SDS011;51008;51.504;11.548;2024-03-07T12:38:26;21.83;;;12.10;;
64598;SDS011;51008;51.504;11.548;2024-03-07T12:43:27;21.58;;;11.75;;
64598;SDS011;51008;51.504;11.548;2024-03-07T12:48:28;26.73;;;13.02;;
64598;SDS011;51008;51.504;11.548;2024-03-07T12:53:29;23.05;;;12.77;;
64598;SDS011;51008;51.504;11.548;2024-03-07T12:58:31;25.08;;;12.32;;
64598;SDS011;51008;51.504;11.548;2024-03-07T13:03:32;26.02;;;12.30;;
64598;SDS011;51008;51.504;11.548;2024-03-07T13:08:33;33.08;;;13.45;;
64598;SDS011;51008;51.504;11.548;2024-03-07T13:13:34;24.13;;;12.65;;
64598;SDS011;51008;51.504;11.548;2024-03-07T13:18:35;24.10;;;12.15;;
64598;SDS011;51008;51.504;11.548;2024-03-07T13:23:36;26.50;;;13.30;;
64598;SDS011;51008;51.504;11.548;2024-03-07T13:28:37;27.00;;;12.00;;
64598;SDS011;51008;51.504;11.548;2024-03-07T13:33:38;25.50;;;12.57;;
64598;SDS011;51008;51.504;11.548;2024-03-07T13:38:39;30.15;;;14.32;;
64598;SDS011;51008;51.504;11.548;2024-03-07T13:43:41;29.08;;;14.25;;
64598;SDS011;51008;51.504;11.548;2024-03-07T13:48:42;26.05;;;13.13;;
64598;SDS011;51008;51.504;11.548;2024-03-07T13:53:43;32.20;;;15.00;;
64598;SDS011;51008;51.504;11.548;2024-03-07T14:26:01;27.88;;;14.63;;
64598;SDS011;51008;51.504;11.548;2024-03-07T14:31:07;30.40;;;14.70;;
64598;SDS011;51008;51.504;11.548;2024-03-07T14:36:12;31.58;;;14.63;;
64598;SDS011;51008;51.504;11.548;2024-03-07T14:41:15;28.90;;;14.38;;
64598;SDS011;51008;51.504;11.548;2024-03-07T14:46:18;28.58;;;14.98;;
64598;SDS011;51008;51.504;11.548;2024-03-07T14:51:19;28.05;;;13.25;;
64598;SDS011;51008;51.504;11.548;2024-03-07T14:56:20;29.98;;;15.38;;
64598;SDS011;51008;51.504;11.548;2024-03-07T15:01:21;29.00;;;14.40;;
64598;SDS011;51008;51.504;11.548;2024-03-07T15:06:22;27.13;;;13.10;;
64598;SDS011;51008;51.504;11.548;2024-03-07T15:11:34;27.33;;;13.77;;
64598;SDS011;51008;51.504;11.548;2024-03-07T15:16:36;26.33;;;13.18;;
64598;SDS011;51008;51.504;11.548;2024-03-07T15:21:37;27.08;;;14.57;;
64598;SDS011;51008;51.504;11.548;2024-03-07T15:26:39;27.23;;;14.60;;
64598;SDS011;51008;51.504;11.548;2024-03-07T15:31:40;23.70;;;13.93;;
64598;SDS011;51008;51.504;11.548;2024-03-07T15:36:42;27.52;;;14.20;;
64598;SDS011;51008;51.504;11.548;2024-03-07T15:41:43;29.67;;;15.25;;
64598;SDS011;51008;51.504;11.548;2024-03-07T15:46:44;27.25;;;13.40;;
64598;SDS011;51008;51.504;11.548;2024-03-07T15:51:45;30.42;;;14.50;;
64598;SDS011;51008;51.504;11.548;2024-03-07T15:56:46;31.45;;;13.68;;
64598;SDS011;51008;51.504;11.548;2024-03-07T16:01:47;27.23;;;14.23;;
64598;SDS011;51008;51.504;11.548;2024-03-07T16:06:48;28.25;;;14.50;;
64598;SDS011;51008;51.504;11.548;2024-03-07T16:11:49;29.38;;;14.55;;
64598;SDS011;51008;51.504;11.548;2024-03-07T16:16:51;28.42;;;14.70;;
64598;SDS011;51008;51.504;11.548;2024-03-07T16:21:51;31.48;;;14.43;;
64598;SDS011;51008;51.504;11.548;2024-03-07T16:26:53;28.85;;;14.20;;
64598;SDS011;51008;51.504;11.548;2024-03-07T16:31:54;27.08;;;14.15;;
64598;SDS011;51008;51.504;11.548;2024-03-07T16:36:55;27.55;;;14.13;;
64598;SDS011;51008;51.504;11.548;2024-03-07T16:41:56;30.90;;;15.25;;
64598;SDS011;51008;51.504;11.548;2024-03-07T16:46:57;31.23;;;15.00;;
64598;SDS011;51008;51.504;11.548;2024-03-07T16:51:58;33.35;;;15.63;;
64598;SDS011;51008;51.504;11.548;2024-03-07T16:56:59;28.65;;;14.85;;
64598;SDS011;51008;51.504;11.548;2024-03-07T17:02:01;29.63;;;14.45;;
64598;SDS011;51008;51.504;11.548;2024-03-07T17:07:02;28.52;;;15.10;;
64598;SDS011;51008;51.504;11.548;2024-03-07T17:12:03;27.65;;;14.68;;
64598;SDS011;51008;51.504;11.548;2024-03-07T17:17:04;26.65;;;14.07;;
64598;SDS011;51008;51.504;11.548;2024-03-07T17:22:05;26.38;;;13.85;;
64598;SDS011;51008;51.504;11.548;2024-03-07T17:27:06;27.38;;;14.10;;
64598;SDS011;51008;51.504;11.548;2024-03-07T17:32:07;25.98;;;13.80;;
64598;SDS011;51008;51.504;11.548;2024-03-07T17:37:08;30.65;;;14.77;;
64598;SDS011;51008;51.504;11.548;2024-03-07T17:42:10;28.80;;;14.05;;
64598;SDS011;51008;51.504;11.548;2024-03-07T17:47:11;33.33;;;15.07;;
64598;SDS011;51008;51.504;11.548;2024-03-07T17:52:12;31.95;;;15.10;;
64598;SDS011;51008;51.504;11.548;2024-03-07T17:57:14;32.17;;;15.48;;
64598;SDS011;51008;51.504;11.548;2024-03-07T18:02:15;33.70;;;15.48;;
64598;SDS011;51008;51.504;11.548;2024-03-07T18:07:17;29.45;;;14.98;;
64598;SDS011;51008;51.504;11.548;2024-03-07T18:12:18;28.10;;;13.95;;
64598;SDS011;51008;51.504;11.548;2024-03-07T18:17:19;27.05;;;13.73;;
64598;SDS011;51008;51.504;11.548;2024-03-07T18:22:20;29.42;;;14.20;;
64598;SDS011;51008;51.504;11.548;2024-03-07T18:27:21;30.08;;;14.85;;
64598;SDS011;51008;51.504;11.548;2024-03-07T18:32:22;31.45;;;13.68;;
64598;SDS011;51008;51.504;11.548;2024-03-07T18:37:23;27.90;;;14.00;;
64598;SDS011;51008;51.504;11.548;2024-03-07T18:42:26;29.77;;;15.57;;
64598;SDS011;51008;51.504;11.548;2024-03-07T18:47:27;25.10;;;13.48;;
64598;SDS011;51008;51.504;11.548;2024-03-07T18:52:28;27.15;;;14.70;;
64598;SDS011;51008;51.504;11.548;2024-03-07T18:57:29;30.77;;;16.60;;
64598;SDS011;51008;51.504;11.548;2024-03-07T19:02:30;35.00;;;15.43;;
64598;SDS011;51008;51.504;11.548;2024-03-07T19:07:31;37.92;;;18.63;;
64598;SDS011;51008;51.504;11.548;2024-03-07T19:12:32;33.13;;;16.08;;
64598;SDS011;51008;51.504;11.548;2024-03-07T19:17:33;36.60;;;17.92;;
64598;SDS011;51008;51.504;11.548;2024-03-07T19:22:34;35.58;;;17.17;;
64598;SDS011;51008;51.504;11.548;2024-03-07T19:27:35;37.45;;;18.77;;
64598;SDS011;51008;51.504;11.548;2024-03-07T19:32:36;35.22;;;18.17;;
64598;SDS011;51008;51.504;11.548;2024-03-07T19:37:37;37.15;;;17.70;;
64598;SDS011;51008;51.504;11.548;2024-03-07T19:42:38;39.80;;;19.98;;
64598;SDS011;51008;51.504;11.548;2024-03-07T19:47:40;33.03;;;17.95;;
64598;SDS011;51008;51.504;11.548;2024-03-07T19:52:41;41.45;;;20.67;;
64598;SDS011;51008;51.504;11.548;2024-03-07T19:57:43;39.25;;;19.08;;
64598;SDS011;51008;51.504;11.548;2024-03-07T20:02:44;39.72;;;19.48;;
64598;SDS011;51008;51.504;11.548;2024-03-07T20:07:46;42.95;;;20.60;;
64598;SDS011;51008;51.504;11.548;2024-03-07T20:12:47;36.10;;;19.33;;
64598;SDS011;51008;51.504;11.548;2024-03-07T20:17:48;35.53;;;18.40;;
64598;SDS011;51008;51.504;11.548;2024-03-07T20:22:50;37.20;;;19.70;;
64598;SDS011;51008;51.504;11.548;2024-03-07T20:27:51;38.95;;;19.38;;
64598;SDS011;51008;51.504;11.548;2024-03-07T20:32:53;39.80;;;20.50;;
64598;SDS011;51008;51.504;11.548;2024-03-07T20:37:54;35.45;;;19.20;;
64598;SDS011;51008;51.504;11.548;2024-03-07T20:42:55;38.30;;;20.55;;
64598;SDS011;51008;51.504;11.548;2024-03-07T20:47:56;35.03;;;19.20;;
64598;SDS011;51008;51.504;11.548;2024-03-07T20:52:57;42.67;;;20.70;;
64598;SDS011;51008;51.504;11.548;2024-03-07T20:57:58;43.88;;;20.08;;
64598;SDS011;51008;51.504;11.548;2024-03-07T21:02:59;40.65;;;21.30;;
64598;SDS011;51008;51.504;11.548;2024-03-07T21:08:00;42.80;;;20.85;;
64598;SDS011;51008;51.504;11.548;2024-03-07T21:13:01;51.38;;;24.52;;
64598;SDS011;51008;51.504;11.548;2024-03-07T21:18:03;50.30;;;24.45;;
64598;SDS011;51008;51.504;11.548;2024-03-07T21:23:05;47.03;;;23.42;;
64598;SDS011;51008;51.504;11.548;2024-03-07T21:28:06;41.83;;;21.52;;
64598;SDS011;51008;51.504;11.548;2024-03-07T21:33:07;45.00;;;23.25;;
64598;SDS011;51008;51.504;11.548;2024-03-07T21:38:08;43.33;;;21.30;;
64598;SDS011;51008;51.504;11.548;2024-03-07T21:43:09;43.40;;;22.05;;
64598;SDS011;51008;51.504;11.548;2024-03-07T21:48:10;42.33;;;21.88;;
64598;SDS011;51008;51.504;11.548;2024-03-07T21:53:11;53.25;;;26.10;;
64598;SDS011;51008;51.504;11.548;2024-03-07T21:58:12;56.47;;;26.90;;
64598;SDS011;51008;51.504;11.548;2024-03-07T22:03:13;58.30;;;27.30;;
64598;SDS011;51008;51.504;11.548;2024-03-07T22:08:14;52.22;;;26.58;;
64598;SDS011;51008;51.504;11.548;2024-03-07T22:13:16;53.10;;;26.25;;
64598;SDS011;51008;51.504;11.548;2024-03-07T22:18:17;54.35;;;25.65;;
64598;SDS011;51008;51.504;11.548;2024-03-07T22:23:18;44.70;;;22.65;;
64598;SDS011;51008;51.504;11.548;2024-03-07T22:28:19;46.90;;;24.95;;
64598;SDS011;51008;51.504;11.548;2024-03-07T22:33:20;51.75;;;23.27;;
64598;SDS011;51008;51.504;11.548;2024-03-07T22:38:21;52.22;;;24.20;;
64598;SDS011;51008;51.504;11.548;2024-03-07T22:43:22;47.40;;;24.08;;
64598;SDS011;51008;51.504;11.548;2024-03-07T22:48:23;42.70;;;22.58;;
64598;SDS011;51008;51.504;11.548;2024-03-07T22:53:24;46.75;;;22.35;;
64598;SDS011;51008;51.504;11.548;2024-03-07T22:58:25;46.72;;;22.70;;
64598;SDS011;51008;51.504;11.548;2024-03-07T23:03:26;48.97;;;23.58;;
64598;SDS011;51008;51.504;11.548;2024-03-07T23:08:27;45.72;;;21.63;;
64598;SDS011;51008;51.504;11.548;2024-03-07T23:13:29;44.72;;;23.20;;
64598;SDS011;51008;51.504;11.548;2024-03-07T23:18:30;52.80;;;25.02;;
64598;SDS011;51008;51.504;11.548;2024-03-07T23:23:32;52.38;;;25.25;;
64598;SDS011;51008;51.504;11.548;2024-03-07T23:28:33;52.25;;;24.92;;
64598;SDS011;51008;51.504;11.548;2024-03-07T23:33:34;57.75;;;26.05;;
64598;SDS011;51008;51.504;11.548;2024-03-07T23:38:36;55.60;;;25.67;;
64598;SDS011;51008;51.504;11.548;2024-03-07T23:43:37;54.65;;;24.05;;
64598;SDS011;51008;51.504;11.548;2024-03-07T23:48:39;56.83;;;26.70;;
64598;SDS011;51008;51.504;11.548;2024-03-07T23:53:41;55.42;;;25.17;;
64598;SDS011;51008;51.504;11.548;2024-03-07T23:58:42;53.45;;;25.30;;
